Time;durP1;ratioP1;P1;durP2;ratioP2;P2;SDS_P1;SDS_P2;PMS_P1;PMS_P2;Temp;Humidity;BMP_temperature;BMP_pressure;BME280_temperature;BME280_humidity;BME280_pressure;Samples;Min_cycle;Max_cycle;Signal;HPM_P1;HPM_P2
2022/01/09 00:00:20;;;;;;;1.00;0.50;;;20.10;48.40;;;;;;5031620;28;20747;-65
2022/01/09 00:02:45;;;;;;;2.10;0.35;;;20.00;48.30;;;;;;5032495;28;20144;-65
2022/01/09 00:05:11;;;;;;;1.50;0.40;;;20.00;48.30;;;;;;5032587;28;20467;-65
2022/01/09 00:07:37;;;;;;;1.10;0.40;;;20.00;48.30;;;;;;5031729;28;20041;-66
2022/01/09 00:10:03;;;;;;;0.70;0.40;;;20.00;48.30;;;;;;5014498;28;20041;-66
2022/01/09 00:12:29;;;;;;;1.85;0.40;;;19.90;48.20;;;;;;5031923;28;20409;-66
2022/01/09 00:14:55;;;;;;;2.08;0.50;;;19.90;48.20;;;;;;5031593;28;20088;-66
2022/01/09 00:17:20;;;;;;;0.60;0.40;;;20.00;48.30;;;;;;5033237;28;20037;-66
2022/01/09 00:19:46;;;;;;;1.00;0.40;;;20.00;48.20;;;;;;5015202;28;20060;-66
2022/01/09 00:22:12;;;;;;;0.82;0.30;;;19.90;48.20;;;;;;5031316;28;20645;-66
2022/01/09 00:24:37;;;;;;;1.13;0.50;;;19.90;48.20;;;;;;5035088;28;20041;-66
2022/01/09 00:27:03;;;;;;;2.28;0.70;;;19.90;48.20;;;;;;5018338;28;20049;-66
2022/01/09 00:29:29;;;;;;;1.17;0.32;;;19.90;48.20;;;;;;5035053;28;20045;-66
2022/01/09 00:31:54;;;;;;;2.15;0.50;;;19.90;48.20;;;;;;5036320;28;20064;-66
2022/01/09 00:34:20;;;;;;;0.88;0.40;;;19.90;48.10;;;;;;5035547;28;20520;-66
2022/01/09 00:36:45;;;;;;;0.60;0.40;;;19.90;48.20;;;;;;5017377;28;20132;-66
2022/01/09 00:39:11;;;;;;;1.15;0.35;;;19.80;48.20;;;;;;5035822;28;20497;-66
2022/01/09 00:41:36;;;;;;;1.02;0.40;;;19.80;48.10;;;;;;5017892;28;20049;-66
2022/01/09 00:44:02;;;;;;;1.02;0.43;;;19.80;48.20;;;;;;5035023;28;20049;-66
2022/01/09 00:46:27;;;;;;;1.98;0.43;;;19.80;48.10;;;;;;5017706;28;20516;-66
2022/01/09 00:48:53;;;;;;;1.92;0.50;;;19.80;48.20;;;;;;5036032;28;20045;-66
2022/01/09 00:51:18;;;;;;;1.10;0.40;;;19.80;48.20;;;;;;5034540;28;20049;-65
2022/01/09 00:53:44;;;;;;;0.75;0.32;;;19.80;48.30;;;;;;5018162;28;20045;-66
2022/01/09 00:56:09;;;;;;;0.95;0.50;;;19.80;48.30;;;;;;5034682;28;20451;-66
2022/01/09 00:58:35;;;;;;;0.98;0.40;;;19.80;48.30;;;;;;5035265;28;20080;-66
2022/01/09 01:01:00;;;;;;;1.05;0.38;;;19.70;48.20;;;;;;5018319;28;20045;-65
2022/01/09 01:03:26;;;;;;;1.13;0.40;;;19.70;48.20;;;;;;5034553;28;20485;-65
2022/01/09 01:05:51;;;;;;;0.80;0.40;;;19.70;48.20;;;;;;5035391;28;20037;-65
2022/01/09 01:08:17;;;;;;;1.10;0.30;;;19.70;48.20;;;;;;5035005;28;20401;-66
2022/01/09 01:10:43;;;;;;;0.65;0.30;;;19.70;48.20;;;;;;5034501;28;20108;-66
2022/01/09 01:13:09;;;;;;;1.58;0.38;;;19.70;48.30;;;;;;5035512;28;20072;-65
2022/01/09 01:15:34;;;;;;;1.13;0.40;;;19.70;48.20;;;;;;5035242;28;20046;-66
2022/01/09 01:18:00;;;;;;;0.55;0.30;;;19.70;48.30;;;;;;5034574;28;20045;-65
2022/01/09 01:20:27;;;;;;;1.10;0.40;;;19.70;48.30;;;;;;5035152;28;20124;-66
2022/01/09 01:22:53;;;;;;;1.48;0.40;;;19.60;48.20;;;;;;5034973;28;20132;-66
2022/01/09 01:25:21;;;;;;;0.68;0.30;;;19.60;48.20;;;;;;5033952;28;20128;-66
2022/01/09 01:27:47;;;;;;;1.38;0.30;;;19.60;48.30;;;;;;5017495;28;20056;-66
2022/01/09 01:30:12;;;;;;;0.95;0.30;;;19.60;48.30;;;;;;5034938;28;20049;-66
2022/01/09 01:32:38;;;;;;;0.40;0.28;;;19.60;48.30;;;;;;5034354;28;20041;-65
2022/01/09 01:35:04;;;;;;;0.22;0.22;;;19.60;48.30;;;;;;5034967;28;20041;-66
2022/01/09 01:37:29;;;;;;;1.05;0.30;;;19.60;48.30;;;;;;5016912;28;20096;-66
2022/01/09 01:39:55;;;;;;;1.35;0.30;;;19.60;48.30;;;;;;5034269;28;20515;-66
2022/01/09 01:42:20;;;;;;;0.82;0.30;;;19.60;48.40;;;;;;5016823;28;20102;-65
2022/01/09 01:44:48;;;;;;;1.65;0.50;;;19.60;48.40;;;;;;5035046;28;20056;-66
2022/01/09 01:47:13;;;;;;;0.80;0.40;;;19.50;48.30;;;;;;5033680;28;20107;-66
2022/01/09 01:49:39;;;;;;;1.50;0.30;;;19.50;48.30;;;;;;5016821;28;20481;-66
2022/01/09 01:52:05;;;;;;;1.33;0.40;;;19.50;48.40;;;;;;5016509;28;20045;-66
2022/01/09 01:54:32;;;;;;;1.13;0.50;;;19.50;48.40;;;;;;5016075;28;20048;-66
2022/01/09 01:56:58;;;;;;;1.27;0.30;;;19.50;48.40;;;;;;5034441;28;20119;-66
2022/01/09 01:59:23;;;;;;;1.05;0.35;;;19.50;48.50;;;;;;5033616;28;20068;-66
2022/01/09 02:01:49;;;;;;;0.55;0.25;;;19.50;48.50;;;;;;5034330;28;20046;-66
2022/01/09 02:04:14;;;;;;;0.88;0.30;;;19.50;48.50;;;;;;5034323;28;20045;-66
2022/01/09 02:06:40;;;;;;;1.17;0.30;;;19.50;48.60;;;;;;5033728;28;20041;-66
2022/01/09 02:09:05;;;;;;;1.20;0.30;;;19.50;48.60;;;;;;5034174;28;20051;-65
2022/01/09 02:11:31;;;;;;;0.75;0.30;;;19.50;48.50;;;;;;5033802;28;20080;-66
2022/01/09 02:13:57;;;;;;;1.02;0.38;;;19.50;48.50;;;;;;5033530;28;20469;-66
2022/01/09 02:16:23;;;;;;;0.98;0.40;;;19.50;48.50;;;;;;5016268;28;20095;-66
2022/01/09 02:18:49;;;;;;;0.55;0.30;;;19.50;48.60;;;;;;5034217;28;20041;-65
2022/01/09 02:21:15;;;;;;;0.30;0.20;;;19.50;48.60;;;;;;5032701;28;20053;-66
2022/01/09 02:23:45;;;;;;;1.25;0.30;;;19.50;48.50;;;;;;5033897;28;20049;-66
2022/01/09 02:26:11;;;;;;;0.63;0.30;;;19.50;48.60;;;;;;5034305;28;20045;-65
2022/01/09 02:28:36;;;;;;;0.63;0.30;;;19.50;48.60;;;;;;5015468;28;20045;-66
2022/01/09 02:31:02;;;;;;;0.30;0.28;;;19.50;48.60;;;;;;5034025;28;20049;-66
2022/01/09 02:33:27;;;;;;;0.38;0.20;;;19.50;48.60;;;;;;5033634;28;20118;-66
2022/01/09 02:35:53;;;;;;;0.77;0.28;;;19.50;48.70;;;;;;5015176;28;20045;-65
2022/01/09 02:38:19;;;;;;;0.60;0.25;;;19.50;48.70;;;;;;5033442;28;20057;-65
2022/01/09 02:40:49;;;;;;;0.85;0.30;;;19.50;48.70;;;;;;5033783;28;20050;-65
2022/01/09 02:43:15;;;;;;;1.13;0.30;;;19.50;48.70;;;;;;5032580;28;20045;-65
2022/01/09 02:45:41;;;;;;;0.70;0.30;;;19.50;48.60;;;;;;5033166;28;20378;-66
2022/01/09 02:48:09;;;;;;;0.93;0.30;;;19.40;48.60;;;;;;5033371;28;20048;-66
2022/01/09 02:50:39;;;;;;;0.30;0.20;;;19.40;48.60;;;;;;5032205;28;20512;-65
2022/01/09 02:53:20;;;;;;;0.70;0.40;;;19.50;48.70;;;;;;5033506;28;20053;-66
2022/01/09 02:55:46;;;;;;;0.60;0.22;;;19.50;48.70;;;;;;5032576;28;20523;-66
2022/01/09 02:58:11;;;;;;;0.50;0.30;;;19.50;48.80;;;;;;5033323;28;20513;-65
2022/01/09 03:00:38;;;;;;;0.50;0.30;;;19.50;48.80;;;;;;5015688;28;20064;-65
2022/01/09 03:03:04;;;;;;;0.50;0.28;;;19.50;48.80;;;;;;5032043;28;20503;-65
2022/01/09 03:05:30;;;;;;;0.70;0.30;;;19.50;48.80;;;;;;5031753;28;20045;-66
2022/01/09 03:07:55;;;;;;;0.70;0.30;;;19.40;48.80;;;;;;5032043;28;20049;-65
2022/01/09 03:10:21;;;;;;;0.82;0.25;;;19.50;48.80;;;;;;5032049;28;20132;-65
2022/01/09 03:12:47;;;;;;;1.60;0.30;;;19.50;48.90;;;;;;5015442;28;20056;-66
2022/01/09 03:15:13;;;;;;;0.40;0.22;;;19.50;48.90;;;;;;5032758;28;20037;-65
2022/01/09 03:17:39;;;;;;;0.50;0.25;;;19.40;48.80;;;;;;5032639;28;20063;-65
2022/01/09 03:20:06;;;;;;;0.57;0.30;;;19.50;48.90;;;;;;5015555;28;20041;-65
2022/01/09 03:22:31;;;;;;;0.65;0.20;;;19.50;48.90;;;;;;5032568;28;20053;-65
2022/01/09 03:24:57;;;;;;;0.60;0.30;;;19.50;48.90;;;;;;5032418;28;20045;-65
2022/01/09 03:27:22;;;;;;;1.13;0.30;;;19.50;48.90;;;;;;5032442;28;20081;-65
2022/01/09 03:29:48;;;;;;;0.95;0.35;;;19.50;48.90;;;;;;5032051;28;20086;-65
2022/01/09 03:32:13;;;;;;;1.65;0.32;;;19.50;48.90;;;;;;5032734;28;20041;-65
2022/01/09 03:34:39;;;;;;;3.55;0.30;;;19.50;49.00;;;;;;5014445;28;20120;-65
2022/01/09 03:37:04;;;;;;;0.50;0.30;;;19.50;48.90;;;;;;5032869;28;20072;-65
2022/01/09 03:39:30;;;;;;;0.38;0.20;;;19.50;48.90;;;;;;5013947;28;20049;-65
2022/01/09 03:41:58;;;;;;;0.85;0.30;;;19.50;49.00;;;;;;5015238;28;20042;-65
2022/01/09 03:44:24;;;;;;;1.23;0.50;;;19.60;49.10;;;;;;5032603;28;20124;-65
2022/01/09 03:46:50;;;;;;;0.40;0.40;;;19.60;49.00;;;;;;5032212;28;20052;-65
2022/01/09 03:49:15;;;;;;;0.47;0.30;;;19.60;49.10;;;;;;5032341;28;20053;-65
2022/01/09 03:51:44;;;;;;;0.85;0.32;;;19.60;49.10;;;;;;5031521;28;20500;-65
2022/01/09 03:54:09;;;;;;;;;;;19.60;49.80;;;;;;5031642;28;20041;-65
2022/01/09 03:56:35;;;;;;;0.43;0.30;;;19.60;49.10;;;;;;5032404;28;19931;-65
2022/01/09 03:59:00;;;;;;;1.10;0.47;;;19.60;49.10;;;;;;5034094;28;20045;-65
2022/01/09 04:01:26;;;;;;;1.13;0.40;;;19.60;49.10;;;;;;5018915;28;20508;-65
2022/01/09 04:03:51;;;;;;;0.55;0.30;;;19.60;49.10;;;;;;5018783;28;20048;-65
2022/01/09 04:06:17;;;;;;;0.30;0.20;;;19.60;49.10;;;;;;5035494;28;20038;-65
2022/01/09 04:08:43;;;;;;;0.85;0.35;;;19.60;49.10;;;;;;5036542;28;20041;-65
2022/01/09 04:11:09;;;;;;;0.65;0.28;;;19.60;49.90;;;;;;5036270;28;20041;-65
2022/01/09 04:13:35;;;;;;;0.52;0.30;;;19.70;49.20;;;;;;5035326;28;20396;-65
2022/01/09 04:16:01;;;;;;;2.13;0.30;;;19.70;49.20;;;;;;5035549;28;20493;-65
2022/01/09 04:18:28;;;;;;;0.75;0.30;;;19.70;49.20;;;;;;5036343;28;20076;-65
2022/01/09 04:20:54;;;;;;;1.50;0.43;;;19.70;49.20;;;;;;5016972;28;20069;-65
2022/01/09 04:23:20;;;;;;;0.93;0.38;;;19.70;49.20;;;;;;5036048;28;20089;-65
2022/01/09 04:25:46;;;;;;;0.65;0.30;;;19.70;49.30;;;;;;5036172;28;20049;-65
2022/01/09 04:28:11;;;;;;;0.85;0.30;;;19.70;49.20;;;;;;5035343;28;20112;-65
2022/01/09 04:30:37;;;;;;;0.68;0.30;;;19.70;49.20;;;;;;5017598;28;20041;-65
2022/01/09 04:33:03;;;;;;;0.50;0.20;;;19.70;49.20;;;;;;5035467;28;20037;-65
2022/01/09 04:35:28;;;;;;;0.80;0.30;;;19.70;49.20;;;;;;5034748;28;20050;-65
2022/01/09 04:37:54;;;;;;;0.95;0.30;;;19.70;49.20;;;;;;5018436;28;20496;-66
2022/01/09 04:40:21;;;;;;;1.85;0.70;;;19.70;49.20;;;;;;5035713;28;20037;-65
2022/01/09 04:42:59;;;;;;;1.17;0.40;;;19.70;49.20;;;;;;5035221;28;20563;-65
2022/01/09 04:45:27;;;;;;;1.73;0.40;;;19.80;49.30;;;;;;5035838;28;20051;-65
2022/01/09 04:47:54;;;;;;;1.20;0.40;;;19.70;49.30;;;;;;5035903;28;20083;-65
2022/01/09 04:50:24;;;;;;;1.10;0.38;;;19.80;49.30;;;;;;5034727;28;20049;-65
2022/01/09 04:52:58;;;;;;;2.20;0.30;;;19.80;49.30;;;;;;5035981;28;20049;-65
2022/01/09 04:55:24;;;;;;;1.42;0.40;;;19.80;49.30;;;;;;5017185;28;20049;-66
2022/01/09 04:57:49;;;;;;;1.05;0.40;;;19.80;49.30;;;;;;5035155;28;20507;-65
2022/01/09 05:00:14;;;;;;;2.22;0.70;;;19.80;49.30;;;;;;5034637;28;20046;-65
2022/01/09 05:02:40;;;;;;;1.95;0.60;;;19.80;49.30;;;;;;5023626;28;20050;-65
2022/01/09 05:05:06;;;;;;;1.75;0.50;;;19.80;49.20;;;;;;5034918;28;20099;-65
2022/01/09 05:07:31;;;;;;;1.55;0.40;;;19.80;49.30;;;;;;5034766;28;20468;-65
2022/01/09 05:09:57;;;;;;;1.45;0.50;;;19.80;49.20;;;;;;5033338;28;20041;-65
2022/01/09 05:12:22;;;;;;;3.50;0.60;;;19.80;49.20;;;;;;5034965;28;20496;-65
2022/01/09 05:14:48;;;;;;;3.25;0.60;;;19.80;49.20;;;;;;5035172;28;20130;-65
2022/01/09 05:17:13;;;;;;;3.25;0.60;;;19.80;49.20;;;;;;5034302;28;20129;-65
2022/01/09 05:19:40;;;;;;;2.13;0.65;;;19.80;49.20;;;;;;5035471;28;20048;-65
2022/01/09 05:22:08;;;;;;;3.28;0.75;;;19.80;49.20;;;;;;5035176;28;20049;-65
2022/01/09 05:24:34;;;;;;;3.15;0.70;;;19.80;49.10;;;;;;5034046;28;20045;-65
2022/01/09 05:26:59;;;;;;;2.35;0.63;;;19.90;49.20;;;;;;5016598;28;20042;-65
2022/01/09 05:29:25;;;;;;;4.55;0.85;;;19.80;49.10;;;;;;5034900;28;20050;-65
2022/01/09 05:31:50;;;;;;;4.18;1.02;;;19.90;49.20;;;;;;5034240;28;20041;-65
2022/01/09 05:34:16;;;;;;;4.65;0.90;;;19.80;49.10;;;;;;5034143;28;20072;-65
2022/01/09 05:36:41;;;;;;;5.85;1.02;;;19.90;49.10;;;;;;5034769;28;20400;-65
2022/01/09 05:39:07;;;;;;;2.83;0.90;;;19.90;49.10;;;;;;5034005;28;20045;-65
2022/01/09 05:41:33;;;;;;;4.00;0.88;;;19.90;49.10;;;;;;5034895;28;20464;-65
2022/01/09 05:43:58;;;;;;;4.32;0.98;;;19.90;49.10;;;;;;5034506;28;20049;-65
2022/01/09 05:46:24;;;;;;;3.25;0.98;;;19.90;49.10;;;;;;5033697;28;20136;-65
2022/01/09 05:48:49;;;;;;;3.83;1.02;;;19.90;49.10;;;;;;5034698;28;20077;-65
2022/01/09 05:51:15;;;;;;;3.53;0.73;;;19.90;49.20;;;;;;5016431;28;20052;-65
2022/01/09 05:53:40;;;;;;;3.67;0.95;;;19.90;49.20;;;;;;5033980;28;20146;-65
2022/01/09 05:56:06;;;;;;;3.90;0.93;;;19.90;49.10;;;;;;5034768;28;20092;-65
2022/01/09 05:58:33;;;;;;;4.15;1.05;;;19.90;49.10;;;;;;5033470;28;20053;-65
2022/01/09 06:00:59;;;;;;;5.87;1.07;;;19.90;49.10;;;;;;5016976;28;20049;-65
2022/01/09 06:03:24;;;;;;;5.28;1.00;;;19.90;49.10;;;;;;5034157;28;20408;-65
2022/01/09 06:05:51;;;;;;;4.05;1.00;;;20.00;49.10;;;;;;5015860;28;20045;-65
2022/01/09 06:08:16;;;;;;;4.53;1.10;;;19.90;49.10;;;;;;5033941;28;20123;-65
2022/01/09 06:10:42;;;;;;;3.60;0.90;;;19.90;49.10;;;;;;5033876;28;20092;-65
2022/01/09 06:13:07;;;;;;;3.17;0.90;;;19.90;49.10;;;;;;5015707;28;20049;-65
2022/01/09 06:15:33;;;;;;;5.90;1.33;;;20.00;49.20;;;;;;5034154;28;20102;-65
2022/01/09 06:17:58;;;;;;;3.80;1.00;;;20.00;49.20;;;;;;5034394;28;20496;-65
2022/01/09 06:20:24;;;;;;;5.75;1.30;;;19.90;49.10;;;;;;5032628;28;20041;-65
2022/01/09 06:22:49;;;;;;;4.50;1.05;;;20.00;49.20;;;;;;5033682;28;20046;-65
2022/01/09 06:25:15;;;;;;;5.45;0.95;;;20.00;49.20;;;;;;5033496;28;20049;-65
2022/01/09 06:27:41;;;;;;;6.10;1.38;;;20.00;49.20;;;;;;5033331;28;20052;-65
2022/01/09 06:30:07;;;;;;;5.22;1.05;;;19.90;49.10;;;;;;5033860;28;20036;-65
2022/01/09 06:32:32;;;;;;;4.57;1.10;;;20.00;49.20;;;;;;5016092;28;20848;-65
2022/01/09 06:34:58;;;;;;;6.20;1.65;;;20.00;49.20;;;;;;5033223;28;20091;-65
2022/01/09 06:37:23;;;;;;;5.45;1.40;;;20.00;49.10;;;;;;5033240;28;20052;-65
2022/01/09 06:39:49;;;;;;;5.40;1.30;;;20.00;49.10;;;;;;5033667;28;20171;-65
2022/01/09 06:42:14;;;;;;;7.85;1.65;;;20.00;49.10;;;;;;5032593;28;20038;-65
2022/01/09 06:44:40;;;;;;;4.93;1.50;;;20.00;49.10;;;;;;5033977;28;20043;-65
2022/01/09 06:47:05;;;;;;;4.57;1.20;;;20.00;49.10;;;;;;5033507;28;20053;-63
2022/01/09 06:49:31;;;;;;;6.18;1.50;;;20.00;49.10;;;;;;5014866;28;20049;-63
2022/01/09 06:51:57;;;;;;;5.55;1.38;;;20.10;49.10;;;;;;5032574;28;20037;-63
2022/01/09 06:54:22;;;;;;;3.53;1.30;;;20.10;49.10;;;;;;5033200;28;20046;-63
2022/01/09 06:56:48;;;;;;;5.35;1.42;;;20.00;49.00;;;;;;5032748;28;20474;-63
2022/01/09 06:59:13;;;;;;;8.52;1.73;;;20.00;49.00;;;;;;5033030;28;20563;-63
2022/01/09 07:01:39;;;;;;;6.00;1.40;;;20.00;49.00;;;;;;5033389;28;20034;-63
2022/01/09 07:04:04;;;;;;;6.40;1.80;;;20.00;49.00;;;;;;5013991;28;20049;-63
2022/01/09 07:06:30;;;;;;;5.72;1.80;;;20.10;49.10;;;;;;5032827;28;20463;-63
2022/01/09 07:08:55;;;;;;;6.47;1.65;;;20.00;49.00;;;;;;5032686;28;20552;-63
2022/01/09 07:11:21;;;;;;;7.90;1.80;;;20.00;49.00;;;;;;5032494;28;20053;-63
2022/01/09 07:13:46;;;;;;;10.02;1.88;;;20.00;49.00;;;;;;5033337;28;20084;-63
2022/01/09 07:16:12;;;;;;;5.43;1.98;;;20.10;49.00;;;;;;5014349;28;20048;-63
2022/01/09 07:18:37;;;;;;;5.95;1.58;;;20.10;49.00;;;;;;5015641;28;20053;-63
2022/01/09 07:21:03;;;;;;;5.65;1.55;;;20.00;49.00;;;;;;5032877;28;20369;-63
2022/01/09 07:23:32;;;;;;;6.18;1.92;;;20.00;48.90;;;;;;5031907;28;20395;-63
2022/01/09 07:25:57;;;;;;;5.85;1.75;;;20.00;48.90;;;;;;5033127;28;20069;-63
2022/01/09 07:28:23;;;;;;;5.97;1.77;;;20.00;48.90;;;;;;5014475;28;20072;-63
2022/01/09 07:30:48;;;;;;;5.70;1.75;;;20.10;48.90;;;;;;5032436;28;20038;-63
2022/01/09 07:33:14;;;;;;;7.07;2.47;;;20.10;48.90;;;;;;5014883;28;20045;-63
2022/01/09 07:35:39;;;;;;;4.72;1.63;;;20.00;48.80;;;;;;5015065;28;20048;-63
2022/01/09 07:38:05;;;;;;;7.03;1.67;;;20.10;48.90;;;;;;5032349;28;20049;-63
2022/01/09 07:40:31;;;;;;;5.43;1.92;;;20.00;48.80;;;;;;5032707;28;20084;-63
2022/01/09 07:42:56;;;;;;;6.32;2.20;;;20.10;48.80;;;;;;5032751;28;20401;-63
2022/01/09 07:45:24;;;;;;;7.32;1.92;;;20.00;48.70;;;;;;5031707;28;20083;-59
2022/01/09 07:47:50;;;;;;;6.50;1.80;;;20.10;48.80;;;;;;5032549;28;20046;-63
2022/01/09 07:50:16;;;;;;;5.68;1.52;;;20.10;48.70;;;;;;5032561;28;20056;-64
2022/01/09 07:52:41;;;;;;;6.57;1.75;;;20.10;48.80;;;;;;5013658;28;20037;-63
2022/01/09 07:55:07;;;;;;;7.10;2.08;;;20.10;48.80;;;;;;5032101;28;20041;-63
2022/01/09 07:57:33;;;;;;;8.35;2.28;;;20.10;48.70;;;;;;5031612;28;20184;-63
2022/01/09 08:00:01;;;;;;;9.05;1.83;;;20.10;48.70;;;;;;5031972;28;20112;-62
2022/01/09 08:02:27;;;;;;;;;;;20.10;48.70;;;;;;5014360;28;20492;-63
2022/01/09 08:04:52;;;;;;;4.60;1.85;;;20.10;48.70;;;;;;5014824;28;19921;-63
2022/01/09 08:07:18;;;;;;;8.20;2.33;;;20.10;48.80;;;;;;5013661;28;20408;-63
2022/01/09 08:09:45;;;;;;;9.65;2.42;;;20.10;48.80;;;;;;5031915;28;20052;-63
2022/01/09 08:12:10;;;;;;;5.55;2.22;;;20.10;48.80;;;;;;5013781;28;20104;-63
2022/01/09 08:14:38;;;;;;;7.70;2.40;;;20.10;48.70;;;;;;5014713;28;20053;-61
2022/01/09 08:17:04;;;;;;;9.57;2.47;;;20.10;48.80;;;;;;5032633;28;20103;-61
2022/01/09 08:19:31;;;;;;;7.60;2.47;;;20.10;48.90;;;;;;5013870;28;20042;-61
2022/01/09 08:21:57;;;;;;;9.40;2.25;;;20.20;49.00;;;;;;5032410;28;20132;-61
2022/01/09 08:24:23;;;;;;;7.82;2.13;;;20.10;49.00;;;;;;5031910;28;20132;-61
2022/01/09 08:26:48;;;;;;;7.05;1.88;;;20.10;49.10;;;;;;5031376;28;20503;-60
2022/01/09 08:29:15;;;;;;;10.55;2.38;;;20.20;49.20;;;;;;5032018;28;20592;-62
2022/01/09 08:31:41;;;;;;;4.15;1.70;;;20.10;49.10;;;;;;5032230;28;20042;-61
2022/01/09 08:34:06;;;;;;;9.55;2.50;;;20.20;49.20;;;;;;5013975;28;20539;-63
2022/01/09 08:36:32;;;;;;;6.70;1.90;;;20.20;49.30;;;;;;5014166;28;20859;-61
2022/01/09 08:38:58;;;;;;;6.35;2.00;;;20.20;49.40;;;;;;5014525;28;20042;-62
2022/01/09 08:41:23;;;;;;;9.10;2.20;;;20.10;49.20;;;;;;5013126;28;20072;-61
2022/01/09 08:43:48;;;;;;;5.72;1.80;;;20.20;49.30;;;;;;5014392;28;20060;-63
2022/01/09 08:46:15;;;;;;;7.05;2.05;;;20.20;49.30;;;;;;5035628;28;20041;-64
2022/01/09 08:48:41;;;;;;;7.95;2.03;;;20.20;49.40;;;;;;5035321;28;20049;-62
2022/01/09 08:51:07;;;;;;;6.57;2.05;;;20.20;49.40;;;;;;5035781;28;20049;-62
2022/01/09 08:53:35;;;;;;;6.38;1.95;;;20.20;49.50;;;;;;5035615;28;20420;-62
2022/01/09 08:56:04;;;;;;;7.13;2.10;;;20.20;49.50;;;;;;5034890;28;20029;-62
2022/01/09 08:58:30;;;;;;;6.43;2.22;;;20.20;49.50;;;;;;5017837;28;20073;-64
2022/01/09 09:00:55;;;;;;;6.63;2.05;;;20.20;49.50;;;;;;5035792;28;20071;-62
2022/01/09 09:03:22;;;;;;;6.90;2.22;;;20.20;49.40;;;;;;5033707;28;20385;-62
2022/01/09 09:05:48;;;;;;;7.05;2.00;;;20.30;49.50;;;;;;5034904;28;20392;-62
2022/01/09 09:08:13;;;;;;;6.35;1.98;;;20.20;49.50;;;;;;5033039;28;20049;-63
2022/01/09 09:10:39;;;;;;;6.38;1.58;;;20.20;49.50;;;;;;5016499;28;20053;-62
2022/01/09 09:13:04;;;;;;;6.28;1.73;;;20.30;49.60;;;;;;5034966;28;20041;-62
2022/01/09 09:15:30;;;;;;;9.57;1.90;;;20.30;49.60;;;;;;5033536;28;20518;-62
2022/01/09 09:17:55;;;;;;;9.68;1.80;;;20.20;49.60;;;;;;5034985;28;20080;-62
2022/01/09 09:20:21;;;;;;;5.65;1.67;;;20.20;49.60;;;;;;5016705;28;20048;-63
2022/01/09 09:22:47;;;;;;;5.85;1.58;;;20.30;49.60;;;;;;5034368;28;20045;-61
2022/01/09 09:25:13;;;;;;;6.65;1.70;;;20.30;49.60;;;;;;5034703;28;20075;-62
2022/01/09 09:27:38;;;;;;;6.47;2.00;;;20.30;49.70;;;;;;5034500;28;20045;-62
2022/01/09 09:30:05;;;;;;;6.07;1.85;;;20.30;49.70;;;;;;5015024;28;20046;-61
2022/01/09 09:32:31;;;;;;;7.32;2.10;;;20.30;49.70;;;;;;5033092;28;20058;-62
2022/01/09 09:34:56;;;;;;;6.40;1.92;;;20.30;49.70;;;;;;4999322;28;20151;-62
2022/01/09 09:37:23;;;;;;;4.57;1.52;;;20.30;49.80;;;;;;5014458;28;20551;-62
2022/01/09 09:39:51;;;;;;;6.15;1.77;;;20.30;49.80;;;;;;5034287;28;20100;-61
2022/01/09 09:42:17;;;;;;;6.32;1.60;;;20.30;50.00;;;;;;5033613;28;20447;-61
2022/01/09 09:44:42;;;;;;;6.32;1.73;;;20.30;49.90;;;;;;5033468;28;20053;-62
2022/01/09 09:47:08;;;;;;;5.72;1.92;;;20.30;49.90;;;;;;5016594;28;20064;-63
2022/01/09 09:49:33;;;;;;;8.10;2.10;;;20.40;50.10;;;;;;5016240;28;20045;-62
2022/01/09 09:51:59;;;;;;;8.00;1.75;;;20.40;50.10;;;;;;5033265;28;20504;-62
2022/01/09 09:54:25;;;;;;;5.03;1.70;;;20.40;50.10;;;;;;5015750;28;20076;-66
2022/01/09 09:56:52;;;;;;;5.57;1.98;;;20.40;50.10;;;;;;5034696;28;20049;-65
2022/01/09 09:59:29;;;;;;;4.82;1.80;;;20.40;50.80;;;;;;5033359;28;20054;-64
2022/01/09 10:01:54;;;;;;;7.63;2.10;;;20.40;50.00;;;;;;5016764;28;20073;-67
2022/01/09 10:04:20;;;;;;;7.38;1.85;;;20.40;50.00;;;;;;5033782;28;20093;-63
2022/01/09 10:06:47;;;;;;;6.90;1.70;;;20.40;50.00;;;;;;5033494;28;20049;-63
2022/01/09 10:09:22;;;;;;;5.38;1.65;;;20.40;49.90;;;;;;5034046;28;20489;-65
2022/01/09 10:11:51;;;;;;;5.95;1.80;;;20.40;49.90;;;;;;5033128;28;20054;-65
2022/01/09 10:14:24;;;;;;;4.63;1.85;;;20.40;49.80;;;;;;5034162;28;20057;-65
2022/01/09 10:17:12;;;;;;;5.95;1.70;;;20.40;49.80;;;;;;5034423;28;20060;-64
2022/01/09 10:19:42;;;;;;;5.23;1.80;;;20.40;49.80;;;;;;5033092;28;20538;-65
2022/01/09 10:22:27;;;;;;;6.05;1.80;;;20.40;49.80;;;;;;5034062;28;20292;-64
2022/01/09 10:24:52;;;;;;;7.65;1.65;;;20.40;49.70;;;;;;5002345;28;20052;-65
2022/01/09 10:27:34;;;;;;;9.93;1.70;;;20.40;49.70;;;;;;5033034;28;20045;-65
2022/01/09 10:30:02;;;;;;;6.45;1.60;;;20.40;49.50;;;;;;5032719;28;20114;-65
2022/01/09 10:32:28;;;;;;;4.82;1.63;;;20.40;49.60;;;;;;5031293;28;20087;-64
2022/01/09 10:35:23;;;;;;;7.07;1.60;;;20.40;49.50;;;;;;5026923;28;20042;-65
2022/01/09 10:37:50;;;;;;;5.38;1.83;;;20.40;49.50;;;;;;5019948;28;20050;-65
2022/01/09 10:40:21;;;;;;;9.85;1.58;;;20.40;49.50;;;;;;5026920;28;20045;-65
2022/01/09 10:43:07;;;;;;;5.10;1.45;;;20.40;50.10;;;;;;5011678;28;20045;-65
2022/01/09 10:45:33;;;;;;;7.45;1.40;;;20.40;49.50;;;;;;5027720;28;20050;-66
2022/01/09 10:48:07;;;;;;;5.70;1.95;;;20.40;49.50;;;;;;5032635;28;20147;-65
2022/01/09 10:50:35;;;;;;;6.22;1.83;;;20.40;49.50;;;;;;5026893;28;20045;-63
2022/01/09 10:53:24;;;;;;;8.82;2.10;;;20.50;49.70;;;;;;4999120;28;20401;-64
2022/01/09 10:56:11;;;;;;;6.38;1.60;;;20.50;49.80;;;;;;5031349;28;20484;-64
2022/01/09 10:58:45;;;;;;;5.75;1.58;;;20.50;49.80;;;;;;5015292;28;20485;-63
2022/01/09 11:01:35;;;;;;;7.30;1.50;;;20.50;49.80;;;;;;5015465;28;20135;-63
2022/01/09 11:04:06;;;;;;;5.63;2.00;;;20.50;49.80;;;;;;5032575;28;20508;-63
2022/01/09 11:06:33;;;;;;;4.85;1.80;;;20.50;49.80;;;;;;5032880;28;20048;-62
2022/01/09 11:08:59;;;;;;;5.45;1.40;;;20.50;50.70;;;;;;5026750;28;20045;-63
2022/01/09 11:13:52;;;;;;;6.57;1.60;;;20.60;50.20;;;;;;5028990;28;20041;-64
2022/01/09 11:16:33;;;;;;;7.07;1.70;;;20.50;50.20;;;;;;5026468;28;20049;-63
2022/01/09 11:19:12;;;;;;;7.57;1.98;;;20.50;50.50;;;;;;5026256;28;20042;-64
2022/01/09 11:21:44;;;;;;;7.15;1.60;;;20.60;50.90;;;;;;5024657;28;20112;-64
2022/01/09 11:24:43;;;;;;;7.32;1.40;;;20.60;50.90;;;;;;5022332;28;20045;-64
2022/01/09 11:27:18;;;;;;;4.22;1.20;;;20.60;51.20;;;;;;4987178;28;20050;-65
2022/01/09 11:30:04;;;;;;;5.55;1.60;;;20.60;51.10;;;;;;5022135;28;20500;-64
2022/01/09 11:32:49;;;;;;;6.35;1.40;;;20.70;51.50;;;;;;5019658;28;20037;-64
2022/01/09 11:35:55;;;;;;;5.15;1.35;;;20.70;51.70;;;;;;5000401;28;20497;-65
2022/01/09 11:38:43;;;;;;;5.32;1.30;;;20.70;51.80;;;;;;5017083;28;20394;-65
2022/01/09 11:41:19;;;;;;;3.83;1.30;;;20.70;51.70;;;;;;4995887;28;20046;-64
2022/01/09 11:43:57;;;;;;;4.78;1.48;;;20.80;51.80;;;;;;4999551;28;20057;-64
2022/01/09 11:46:23;;;;;;;;;;;20.70;51.80;;;;;;5019535;28;20049;-65
2022/01/09 11:48:52;;;;;;;8.00;1.70;;;20.70;51.70;;;;;;5000444;28;19921;-64
2022/01/09 11:51:21;;;;;;;6.32;1.23;;;20.80;51.70;;;;;;5017791;28;20046;-64
2022/01/09 11:54:11;;;;;;;5.72;1.15;;;20.80;51.70;;;;;;5017770;28;20068;-65
2022/01/09 11:57:08;;;;;;;4.13;1.25;;;20.80;51.90;;;;;;5017131;28;20390;-64
2022/01/09 11:59:37;;;;;;;5.40;1.20;;;20.80;51.90;;;;;;5001220;28;20041;-64
2022/01/09 12:02:02;;;;;;;4.45;1.23;;;20.80;51.90;;;;;;5017882;28;20470;-63
2022/01/09 12:04:31;;;;;;;4.13;1.42;;;20.80;51.80;;;;;;5023048;28;20049;-65
2022/01/09 12:07:31;;;;;;;8.25;1.30;;;20.80;51.80;;;;;;5013007;28;20045;-65
2022/01/09 12:09:57;;;;;;;5.55;1.33;;;20.90;51.60;;;;;;5010564;28;20054;-65
2022/01/09 12:12:32;;;;;;;4.78;1.42;;;20.80;51.60;;;;;;5013458;28;20049;-65
2022/01/09 12:15:02;;;;;;;6.03;1.27;;;20.90;51.60;;;;;;5014753;28;20058;-65
2022/01/09 12:17:34;;;;;;;4.45;1.33;;;20.80;51.50;;;;;;5014716;28;20085;-65
2022/01/09 12:20:12;;;;;;;6.38;1.60;;;20.80;51.40;;;;;;5034023;28;20558;-65
2022/01/09 12:25:22;;;;;;;5.35;1.20;;;20.90;51.50;;;;;;5035003;28;20073;-64
2022/01/09 12:27:51;;;;;;;5.78;1.45;;;20.90;51.40;;;;;;5017561;28;20048;-64
2022/01/09 12:30:55;;;;;;;6.07;1.42;;;20.90;51.50;;;;;;5035892;28;20056;-64
2022/01/09 12:33:32;;;;;;;4.13;1.25;;;20.90;51.60;;;;;;5016995;28;20198;-64
2022/01/09 12:36:03;;;;;;;5.18;1.50;;;20.90;51.60;;;;;;5018194;28;20049;-63
2022/01/09 12:38:31;;;;;;;5.00;1.50;;;20.90;51.70;;;;;;5018029;28;20103;-65
2022/01/09 12:41:00;;;;;;;5.47;1.48;;;20.90;51.70;;;;;;5017561;28;20041;-65
2022/01/09 12:43:26;;;;;;;6.43;1.20;;;20.90;51.90;;;;;;5035715;28;20052;-65
2022/01/09 12:45:52;;;;;;;3.40;0.90;;;20.90;51.80;;;;;;5018218;28;20067;-65
2022/01/09 12:48:28;;;;;;;4.35;1.27;;;20.90;51.90;;;;;;5034716;28;20124;-65
2022/01/09 12:50:55;;;;;;;5.22;1.40;;;20.90;51.90;;;;;;5034899;28;20053;-65
2022/01/09 12:53:28;;;;;;;3.75;1.20;;;20.90;51.90;;;;;;5035488;28;20095;-65
2022/01/09 12:55:57;;;;;;;4.95;1.38;;;20.90;51.90;;;;;;5035738;28;20056;-65